Time;durP1;ratioP1;P1;durP2;ratioP2;P2;SDS_P1;SDS_P2;PMS_P1;PMS_P2;Temp;Humidity;BMP_temperature;BMP_pressure;BME280_temperature;BME280_humidity;BME280_pressure;Samples;Min_cycle;Max_cycle;Signal;HPM_P1;HPM_P2
2022/09/01 00:04:03;;;;;;;4.13;2.90;;;;;;;14.19;100.00;97855.03;18175755;32;20054;-61
2022/09/01 00:14:08;;;;;;;5.70;3.20;;;;;;;14.11;100.00;97842.88;18175544;32;20115;-61
2022/09/01 00:24:31;;;;;;;4.47;3.70;;;;;;;14.05;100.00;97849.50;18175453;32;20084;-61
2022/09/01 00:34:33;;;;;;;3.53;3.22;;;;;;;13.98;100.00;97838.16;18175566;32;20397;-61
2022/09/01 00:44:37;;;;;;;4.07;3.00;;;;;;;13.88;100.00;97833.59;18174663;32;20092;-61
2022/09/01 00:54:44;;;;;;;3.30;3.00;;;;;;;13.82;100.00;97834.78;18040433;32;20063;-60
2022/09/01 01:04:47;;;;;;;4.90;3.53;;;;;;;13.80;100.00;97826.91;18040241;32;20071;-60
2022/09/01 01:14:50;;;;;;;5.12;3.08;;;;;;;13.87;100.00;97821.13;18038898;32;20059;-61
2022/09/01 01:24:52;;;;;;;4.03;3.22;;;;;;;13.90;100.00;97832.22;17935537;32;20062;-60
2022/09/01 01:34:56;;;;;;;6.82;5.22;;;;;;;14.00;100.00;97825.06;18038624;32;20080;-61
2022/09/01 01:44:58;;;;;;;;;;;;;;;14.16;100.00;97831.16;18038364;32;20075;-60
2022/09/01 01:55:01;;;;;;;6.85;4.50;;;;;;;14.21;100.00;97842.78;18057335;32;19953;-61
2022/09/01 02:05:07;;;;;;;7.07;5.47;;;;;;;14.17;100.00;97839.03;18170515;32;20066;-61
2022/09/01 02:15:11;;;;;;;5.73;5.13;;;;;;;14.09;100.00;97846.97;18156694;32;20089;-61
2022/09/01 02:25:15;;;;;;;;;;;;;;;13.98;100.00;97844.37;18169592;32;20360;-61
2022/09/01 02:35:18;;;;;;;4.45;4.03;;;;;;;13.81;100.00;97838.56;18169520;32;19969;-61
2022/09/01 02:45:20;;;;;;;5.43;4.30;;;;;;;13.60;100.00;97840.69;18096857;32;20171;-61
2022/09/01 02:55:23;;;;;;;4.93;4.25;;;;;;;13.49;100.00;97835.34;18097043;32;20176;-60
2022/09/01 03:05:28;;;;;;;3.92;3.62;;;;;;;13.38;100.00;97825.66;18084031;32;20439;-61
2022/09/01 03:15:32;;;;;;;5.05;4.10;;;;;;;13.25;100.00;97831.69;18106891;32;20390;-61
2022/09/01 03:25:35;;;;;;;4.33;3.60;;;;;;;13.08;100.00;97823.97;18167206;32;20038;-60
2022/09/01 03:35:38;;;;;;;4.37;3.45;;;;;;;12.99;100.00;97818.31;18166510;32;20077;-62
2022/09/01 03:45:40;;;;;;;3.47;2.85;;;;;;;12.81;100.00;97817.91;18176586;32;20059;-63
2022/09/01 03:55:45;;;;;;;4.90;3.53;;;;;;;12.63;100.00;97815.81;18163027;32;20073;-60
2022/09/01 04:05:50;;;;;;;4.93;3.60;;;;;;;12.53;100.00;97817.50;18162837;32;20074;-63
2022/09/01 04:15:53;;;;;;;5.03;3.47;;;;;;;12.39;100.00;97816.50;18162172;32;20121;-62
2022/09/01 04:26:07;;;;;;;4.40;3.47;;;;;;;12.36;100.00;97815.13;18175374;32;20175;-62
2022/09/01 04:36:18;;;;;;;3.47;3.12;;;;;;;12.34;100.00;97811.09;17980242;33;20066;-62
2022/09/01 04:46:22;;;;;;;4.35;3.58;;;;;;;12.29;100.00;97817.34;17979832;32;20406;-62
2022/09/01 04:56:25;;;;;;;3.87;3.23;;;;;;;12.22;100.00;97816.81;17979295;32;20063;-62
2022/09/01 05:06:28;;;;;;;3.10;2.80;;;;;;;12.13;100.00;97813.06;18123090;32;20140;-62
2022/09/01 05:16:34;;;;;;;5.93;3.00;;;;;;;12.08;100.00;97813.87;18159221;32;20122;-62
2022/09/01 05:26:39;;;;;;;4.35;3.08;;;;;;;12.07;100.00;97822.28;18146962;32;20451;-62
2022/09/01 05:36:44;;;;;;;4.32;3.25;;;;;;;12.08;100.00;97832.84;18172134;32;20058;-63
2022/09/01 05:46:50;;;;;;;6.12;4.55;;;;;;;12.22;100.00;97840.41;18157736;32;20059;-62
2022/09/01 05:57:12;;;;;;;;;;;;;;;12.45;100.00;97847.91;18159941;32;20066;-62
2022/09/01 06:07:43;;;;;;;4.70;3.92;;;;;;;12.77;100.00;97846.69;18147177;32;19947;-63
2022/09/01 06:17:47;;;;;;;6.03;4.60;;;;;;;13.12;100.00;97850.25;18169650;32;20055;-63
2022/09/01 06:28:04;;;;;;;6.72;4.40;;;;;;;13.59;100.00;97863.50;18169330;32;20098;-63
2022/09/01 06:38:10;;;;;;;5.65;4.72;;;;;;;14.05;100.00;97855.72;18086047;32;20063;-63
2022/09/01 06:48:16;;;;;;;7.22;5.35;;;;;;;14.51;100.00;97859.84;18097269;32;20075;-63
2022/09/01 06:58:19;;;;;;;10.00;7.75;;;;;;;14.98;100.00;97870.12;18096567;32;20055;-63
2022/09/01 07:08:25;;;;;;;8.27;6.43;;;;;;;15.39;100.00;97881.25;18095054;32;20042;-62
2022/09/01 07:18:32;;;;;;;7.57;6.37;;;;;;;15.78;98.54;97884.72;18175320;32;20426;-63
2022/09/01 07:28:36;;;;;;;7.20;5.37;;;;;;;16.16;93.40;97879.16;18178178;32;20504;-63
2022/09/01 07:39:03;;;;;;;;;;;;;;;16.49;91.12;97883.75;18164895;32;20059;-60
2022/09/01 07:49:29;;;;;;;8.15;5.40;;;;;;;16.81;88.57;97885.50;18176959;32;19950;-61
2022/09/01 08:00:30;;;;;;;8.25;4.85;;;;;;;17.19;85.56;97903.59;18176303;32;20114;-61
2022/09/01 08:10:43;;;;;;;7.47;4.80;;;;;;;17.46;80.56;97905.44;18175973;32;20058;-61
2022/09/01 08:20:48;;;;;;;6.12;3.92;;;;;;;17.70;81.43;97896.13;18161984;32;20055;-61
2022/09/01 08:30:54;;;;;;;4.18;3.53;;;;;;;17.96;78.49;97896.31;18161600;32;20066;-62
2022/09/01 08:51:59;;;;;;;4.25;3.65;;;;;;;18.72;76.11;97902.75;18173973;32;20090;-61
2022/09/01 09:02:32;;;;;;;4.62;3.33;;;;;;;18.71;72.03;97885.50;18173693;32;20371;-62
2022/09/01 09:13:01;;;;;;;3.62;3.22;;;;;;;19.03;70.65;97880.75;18172907;32;20050;-61
2022/09/01 09:23:36;;;;;;;5.57;3.50;;;;;;;19.32;72.27;97890.28;18173049;32;20050;-61
2022/09/01 09:34:42;;;;;;;5.55;3.53;;;;;;;19.57;72.43;97902.41;18234321;32;20054;-61
2022/09/01 09:45:23;;;;;;;3.40;2.83;;;;;;;19.70;67.89;97905.31;18220835;32;20130;-61
2022/09/01 09:55:35;;;;;;;4.60;3.10;;;;;;;19.75;70.70;97888.69;18210788;32;20332;-61
2022/09/01 10:05:47;;;;;;;3.03;2.60;;;;;;;20.19;66.97;97883.91;18220673;32;20090;-61
2022/09/01 10:16:08;;;;;;;3.45;2.80;;;;;;;20.33;64.35;97858.19;18233177;32;20065;-62
2022/09/01 10:26:23;;;;;;;3.12;2.55;;;;;;;20.57;65.43;97860.31;18232618;32;20418;-62
2022/09/01 10:36:39;;;;;;;2.78;2.30;;;;;;;20.90;64.97;97846.75;18232775;32;20050;-61
2022/09/01 10:46:45;;;;;;;3.22;2.72;;;;;;;21.43;67.42;97843.56;18219585;32;20045;-62
2022/09/01 10:57:02;;;;;;;3.10;2.05;;;;;;;21.81;66.34;97842.59;18231221;32;20138;-61
2022/09/01 11:07:37;;;;;;;3.30;2.65;;;;;;;22.02;62.16;97833.44;18026180;32;20534;-61
2022/09/01 11:18:07;;;;;;;2.83;2.35;;;;;;;22.25;58.73;97828.31;18034580;32;20093;-61
2022/09/01 11:28:23;;;;;;;4.18;2.75;;;;;;;22.63;62.02;97830.75;18021660;32;20083;-61
2022/09/01 11:39:08;;;;;;;3.45;2.72;;;;;;;22.78;55.40;97826.47;18083920;32;20070;-62
2022/09/01 11:49:36;;;;;;;2.60;2.40;;;;;;;23.09;57.50;97825.03;18229024;32;20072;-61
2022/09/01 11:59:45;;;;;;;2.75;2.20;;;;;;;23.49;57.47;97817.91;18231945;32;20080;-61
2022/09/01 12:09:54;;;;;;;3.40;2.62;;;;;;;23.90;53.18;97824.16;18238598;32;20085;-62
2022/09/01 12:20:24;;;;;;;2.20;1.87;;;;;;;24.19;54.99;97813.84;18224981;32;20098;-62
2022/09/01 12:30:34;;;;;;;4.32;2.05;;;;;;;24.44;54.22;97797.06;18225139;32;20096;-62
2022/09/01 12:40:55;;;;;;;2.22;1.95;;;;;;;24.40;56.21;97808.03;18223605;32;20070;-62
2022/09/01 12:51:02;;;;;;;2.58;1.92;;;;;;;24.82;54.50;97801.13;18237170;32;20106;-61
2022/09/01 13:01:08;;;;;;;2.55;1.87;;;;;;;24.79;55.03;97810.09;18223165;32;20132;-61
2022/09/01 13:11:21;;;;;;;2.40;1.80;;;;;;;25.73;52.61;97799.00;18235108;32;20102;-62
2022/09/01 13:21:29;;;;;;;4.05;1.85;;;;;;;25.50;53.15;97785.94;18235872;32;20106;-61
2022/09/01 13:31:35;;;;;;;2.60;2.05;;;;;;;26.01;48.56;97784.84;18235616;32;20472;-62
2022/09/01 13:42:01;;;;;;;3.30;1.75;;;;;;;26.62;48.60;97771.16;18223863;32;20059;-62
2022/09/01 13:52:10;;;;;;;2.20;1.77;;;;;;;27.11;47.96;97769.47;18220534;32;20458;-62
2022/09/01 14:02:16;;;;;;;2.53;1.85;;;;;;;27.15;47.96;97758.41;18234033;32;20138;-63
2022/09/01 14:12:21;;;;;;;1.87;1.58;;;;;;;27.03;42.87;97753.91;18233480;32;20073;-63
2022/09/01 14:22:24;;;;;;;2.42;1.77;;;;;;;26.85;47.81;97746.13;18206446;32;20403;-62
2022/09/01 14:32:30;;;;;;;2.08;1.50;;;;;;;26.09;44.02;97738.69;18232758;32;20054;-63
2022/09/01 14:42:35;;;;;;;2.12;1.62;;;;;;;25.87;48.19;97731.97;18232134;32;20077;-63
2022/09/01 14:52:39;;;;;;;2.10;1.52;;;;;;;25.43;48.81;97737.94;18231772;32;20101;-63
2022/09/01 15:02:42;;;;;;;1.27;1.17;;;;;;;24.83;49.76;97714.19;18217630;32;20091;-62
2022/09/01 15:12:49;;;;;;;2.15;1.40;;;;;;;24.50;47.64;97713.50;18230780;32;20093;-62
2022/09/01 15:22:53;;;;;;;1.87;1.58;;;;;;;24.07;49.94;97708.97;18095970;32;20128;-63
2022/09/01 15:32:56;;;;;;;3.60;1.80;;;;;;;23.74;52.19;97702.62;18096619;32;20498;-62
2022/09/01 15:43:00;;;;;;;1.73;1.40;;;;;;;23.49;50.06;97700.03;18106295;32;20086;-62
2022/09/01 15:53:07;;;;;;;1.87;1.45;;;;;;;23.23;52.62;97692.28;18212152;32;20058;-63
2022/09/01 16:03:11;;;;;;;2.28;1.55;;;;;;;22.93;50.55;97686.31;18226151;32;20071;-62
2022/09/01 16:13:14;;;;;;;3.05;1.40;;;;;;;22.87;53.63;97694.00;18225472;32;20058;-62
2022/09/01 16:23:21;;;;;;;1.60;1.30;;;;;;;22.88;52.78;97679.06;18238056;32;20078;-63
2022/09/01 16:33:24;;;;;;;1.60;1.50;;;;;;;22.85;52.99;97680.56;18238575;32;20078;-62
2022/09/01 16:44:05;;;;;;;1.40;1.10;;;;;;;22.56;52.85;97676.22;18224025;32;20066;-63
2022/09/01 16:54:23;;;;;;;2.28;1.60;;;;;;;22.25;53.60;97672.12;18237179;32;20351;-62
2022/09/01 17:04:41;;;;;;;1.92;1.42;;;;;;;22.04;53.57;97671.47;18236861;32;20365;-62
2022/09/01 17:14:54;;;;;;;1.23;1.12;;;;;;;21.89;55.04;97664.72;18236004;32;20439;-62
2022/09/01 17:25:06;;;;;;;1.85;1.40;;;;;;;21.54;55.66;97671.44;18222287;32;20062;-62
2022/09/01 17:35:22;;;;;;;2.10;1.48;;;;;;;21.22;56.54;97665.66;18221782;32;20062;-62
2022/09/01 17:45:53;;;;;;;1.62;1.52;;;;;;;20.86;58.05;97663.59;18235081;32;20058;-62
2022/09/01 17:56:08;;;;;;;2.40;1.52;;;;;;;20.60;58.45;97676.41;18233651;32;20062;-62
2022/09/01 18:06:53;;;;;;;1.70;1.50;;;;;;;20.23;60.37;97676.19;18233990;32;20403;-62
2022/09/01 18:17:02;;;;;;;2.95;1.50;;;;;;;20.09;61.00;97681.12;18295380;32;20073;-62
2022/09/01 18:27:06;;;;;;;1.98;1.65;;;;;;;19.72;62.34;97687.12;18282728;32;20082;-62
2022/09/01 18:37:15;;;;;;;2.28;1.70;;;;;;;19.41;65.99;97690.16;18294691;32;20069;-62
2022/09/01 18:47:35;;;;;;;2.00;1.50;;;;;;;19.06;68.47;97702.00;18227310;32;20067;-62
2022/09/01 18:58:05;;;;;;;1.77;1.58;;;;;;;18.67;70.58;97711.19;18117781;32;20059;-62
2022/09/01 19:08:34;;;;;;;2.12;1.83;;;;;;;18.32;73.08;97705.69;18110183;32;20104;-62
2022/09/01 19:18:43;;;;;;;3.33;1.60;;;;;;;18.02;75.31;97702.72;18228150;32;20070;-62
2022/09/01 19:28:49;;;;;;;1.92;1.73;;;;;;;17.72;77.14;97705.16;18241088;32;20058;-63
2022/09/01 19:38:52;;;;;;;1.85;1.73;;;;;;;17.39;78.27;97698.13;18227169;32;20145;-63
2022/09/01 19:49:15;;;;;;;;;;;;;;;17.11;80.11;97698.28;18240507;32;20363;-62
2022/09/01 19:59:36;;;;;;;2.60;1.95;;;;;;;16.88;81.91;97704.84;18226941;32;20345;-62
2022/09/01 20:09:51;;;;;;;1.90;1.70;;;;;;;16.61;82.51;97698.41;18238804;32;20110;-62
2022/09/01 20:20:09;;;;;;;2.50;1.90;;;;;;;16.38;83.50;97694.84;18225427;32;20378;-62
2022/09/01 20:30:24;;;;;;;2.15;1.95;;;;;;;16.19;84.21;97695.78;18238235;32;20165;-62
2022/09/01 20:40:35;;;;;;;2.20;1.87;;;;;;;15.99;85.67;97696.22;18224563;32;20343;-62
2022/09/01 20:50:41;;;;;;;3.30;2.40;;;;;;;15.81;86.92;97689.75;18237571;32;20445;-62
2022/09/01 21:00:52;;;;;;;3.70;2.50;;;;;;;15.62;87.81;97698.81;18223748;32;20082;-62
2022/09/01 21:11:27;;;;;;;4.03;2.75;;;;;;;15.41;88.87;97684.78;18236423;32;20062;-62
2022/09/01 21:21:41;;;;;;;3.12;2.45;;;;;;;15.26;89.63;97691.31;18236217;32;20051;-62
2022/09/01 21:31:45;;;;;;;4.10;3.12;;;;;;;15.11;89.93;97683.41;18221000;32;20093;-62
2022/09/01 21:41:48;;;;;;;4.37;3.25;;;;;;;14.94;90.96;97683.97;18235213;32;20062;-62
2022/09/01 21:58:31;;;;;;;3.62;2.85;;;;;;;15.06;90.03;97674.22;18682898;31;20085;-62
2022/09/01 22:08:34;;;;;;;3.00;2.47;;;;;;;15.06;90.03;97674.22;18616040;31;20348;-62
2022/09/01 22:18:37;;;;;;;3.33;2.67;;;;;;;14.38;93.55;97672.84;18617131;31;20452;-63
2022/09/01 22:28:40;;;;;;;3.40;2.87;;;;;;;14.24;93.49;97656.47;18495989;32;20064;-62
2022/09/01 22:38:43;;;;;;;4.93;3.25;;;;;;;14.13;94.59;97661.22;18475885;32;20450;-62
2022/09/01 22:48:46;;;;;;;4.78;2.90;;;;;;;14.07;95.42;97659.69;18462071;32;20464;-62
2022/09/01 22:58:50;;;;;;;3.75;2.80;;;;;;;13.97;95.91;97646.25;18533553;32;20433;-62
2022/09/01 23:08:54;;;;;;;3.62;3.00;;;;;;;13.88;96.79;97644.16;18509073;31;20091;-62
2022/09/01 23:18:58;;;;;;;3.92;2.83;;;;;;;13.81;97.74;97645.63;18504696;32;20077;-62
2022/09/01 23:29:01;;;;;;;3.35;2.75;;;;;;;13.80;98.22;97633.13;18504037;32;20053;-63
2022/09/01 23:39:04;;;;;;;5.23;3.30;;;;;;;13.74;98.42;97635.09;18502187;32;20463;-62
2022/09/01 23:49:08;;;;;;;3.25;2.87;;;;;;;13.66;99.22;97636.56;18415281;32;20095;-62
2022/09/01 23:59:11;;;;;;;3.63;3.10;;;;;;;13.58;99.17;97629.06;18428277;32;20073;-62
